sensor_id;sensor_type;location;lat;lon;timestamp;pressure;altitude;pressure_sealevel;temperature;humidity
38616;BME280;24370;51.986;4.666;2023-02-19T00:02:25;101868.19;;;15.19;74.26
38616;BME280;24370;51.986;4.666;2023-02-19T00:04:50;101881.66;;;14.98;81.70
38616;BME280;24370;51.986;4.666;2023-02-19T00:07:15;101874.88;;;16.07;73.70
38616;BME280;24370;51.986;4.666;2023-02-19T00:09:41;101881.41;;;15.16;78.54
38616;BME280;24370;51.986;4.666;2023-02-19T00:12:06;101874.25;;;15.29;77.00
38616;BME280;24370;51.986;4.666;2023-02-19T00:14:31;101890.41;;;14.98;77.89
38616;BME280;24370;51.986;4.666;2023-02-19T00:16:57;101884.94;;;15.15;78.89
38616;BME280;24370;51.986;4.666;2023-02-19T00:19:22;101881.78;;;14.87;77.35
38616;BME280;24370;51.986;4.666;2023-02-19T00:21:51;101874.25;;;15.29;75.19
38616;BME280;24370;51.986;4.666;2023-02-19T00:24:17;101887.09;;;14.81;75.40
38616;BME280;24370;51.986;4.666;2023-02-19T00:26:44;101878.56;;;15.97;72.15
38616;BME280;24370;51.986;4.666;2023-02-19T00:29:17;101880.53;;;15.17;75.44
38616;BME280;24370;51.986;4.666;2023-02-19T00:31:43;101880.09;;;14.80;74.79
38616;BME280;24370;51.986;4.666;2023-02-19T00:34:09;101879.13;;;15.57;71.41
38616;BME280;24370;51.986;4.666;2023-02-19T00:36:37;101888.13;;;14.67;75.05
38616;BME280;24370;51.986;4.666;2023-02-19T00:39:04;101889.66;;;16.18;68.39
38616;BME280;24370;51.986;4.666;2023-02-19T00:41:30;101887.75;;;15.68;67.50
38616;BME280;24370;51.986;4.666;2023-02-19T00:46:29;101888.13;;;15.40;71.83
38616;BME280;24370;51.986;4.666;2023-02-19T00:48:56;101889.94;;;15.37;70.82
38616;BME280;24370;51.986;4.666;2023-02-19T00:51:24;101890.72;;;16.07;67.83
38616;BME280;24370;51.986;4.666;2023-02-19T00:53:50;101895.16;;;15.41;69.70
38616;BME280;24370;51.986;4.666;2023-02-19T00:56:16;101902.47;;;15.85;69.10
38616;BME280;24370;51.986;4.666;2023-02-19T00:58:42;101901.25;;;15.45;70.26
38616;BME280;24370;51.986;4.666;2023-02-19T01:01:08;101902.19;;;15.39;69.85
38616;BME280;24370;51.986;4.666;2023-02-19T01:03:34;101909.97;;;14.75;72.39
38616;BME280;24370;51.986;4.666;2023-02-19T01:06:00;101914.19;;;15.62;69.92
38616;BME280;24370;51.986;4.666;2023-02-19T01:08:26;101897.13;;;15.91;68.73
38616;BME280;24370;51.986;4.666;2023-02-19T01:10:51;101902.25;;;17.00;61.98
38616;BME280;24370;51.986;4.666;2023-02-19T01:13:17;101908.69;;;15.81;64.54
38616;BME280;24370;51.986;4.666;2023-02-19T01:15:42;101903.44;;;16.35;64.77
38616;BME280;24370;51.986;4.666;2023-02-19T01:18:08;101905.06;;;16.42;64.07
38616;BME280;24370;51.986;4.666;2023-02-19T01:20:33;101909.63;;;15.73;66.46
38616;BME280;24370;51.986;4.666;2023-02-19T01:22:59;101908.50;;;15.26;68.23
38616;BME280;24370;51.986;4.666;2023-02-19T01:25:24;101911.63;;;15.56;67.42
38616;BME280;24370;51.986;4.666;2023-02-19T01:27:50;101909.97;;;16.64;62.52
38616;BME280;24370;51.986;4.666;2023-02-19T01:30:15;101913.25;;;16.27;62.89
38616;BME280;24370;51.986;4.666;2023-02-19T01:32:40;101907.34;;;16.09;65.33
38616;BME280;24370;51.986;4.666;2023-02-19T01:35:06;101917.09;;;15.42;67.06
38616;BME280;24370;51.986;4.666;2023-02-19T01:37:31;101910.25;;;15.94;66.29
38616;BME280;24370;51.986;4.666;2023-02-19T01:39:57;101911.59;;;15.57;68.03
38616;BME280;24370;51.986;4.666;2023-02-19T01:42:22;101916.41;;;15.93;66.34
38616;BME280;24370;51.986;4.666;2023-02-19T01:47:15;101909.88;;;15.58;66.39
38616;BME280;24370;51.986;4.666;2023-02-19T01:49:49;101915.94;;;16.24;62.64
38616;BME280;24370;51.986;4.666;2023-02-19T01:52:26;101911.41;;;15.71;65.86
38616;BME280;24370;51.986;4.666;2023-02-19T01:54:53;101913.31;;;16.21;65.16
38616;BME280;24370;51.986;4.666;2023-02-19T01:57:24;101921.78;;;15.85;66.34
38616;BME280;24370;51.986;4.666;2023-02-19T01:59:55;101920.28;;;16.25;63.89
38616;BME280;24370;51.986;4.666;2023-02-19T02:02:23;101913.63;;;16.55;61.72
38616;BME280;24370;51.986;4.666;2023-02-19T02:04:54;101916.59;;;16.37;62.25
38616;BME280;24370;51.986;4.666;2023-02-19T02:07:19;101924.31;;;15.93;65.15
38616;BME280;24370;51.986;4.666;2023-02-19T02:10:04;101923.28;;;16.02;63.85
38616;BME280;24370;51.986;4.666;2023-02-19T02:12:49;101926.44;;;15.66;66.76
38616;BME280;24370;51.986;4.666;2023-02-19T02:15:15;101935.50;;;15.43;67.67
38616;BME280;24370;51.986;4.666;2023-02-19T02:20:33;101918.78;;;16.08;62.11
38616;BME280;24370;51.986;4.666;2023-02-19T02:31:18;101928.69;;;15.96;62.80
38616;BME280;24370;51.986;4.666;2023-02-19T02:36:30;101932.03;;;16.60;58.71
38616;BME280;24370;51.986;4.666;2023-02-19T02:38:57;101942.81;;;15.91;62.98
38616;BME280;24370;51.986;4.666;2023-02-19T02:41:24;101941.69;;;16.06;62.88
38616;BME280;24370;51.986;4.666;2023-02-19T02:43:49;101944.72;;;15.05;66.13
38616;BME280;24370;51.986;4.666;2023-02-19T02:46:23;101941.84;;;15.29;63.34
38616;BME280;24370;51.986;4.666;2023-02-19T02:48:55;101940.09;;;15.96;61.83
38616;BME280;24370;51.986;4.666;2023-02-19T02:51:28;101947.47;;;16.30;61.37
38616;BME280;24370;51.986;4.666;2023-02-19T02:53:56;101946.00;;;16.12;62.52
38616;BME280;24370;51.986;4.666;2023-02-19T02:56:43;101949.09;;;15.83;63.46
38616;BME280;24370;51.986;4.666;2023-02-19T02:59:12;101949.41;;;16.20;60.64
38616;BME280;24370;51.986;4.666;2023-02-19T03:02:06;101954.84;;;16.09;61.55
38616;BME280;24370;51.986;4.666;2023-02-19T03:04:45;101955.97;;;16.49;58.42
38616;BME280;24370;51.986;4.666;2023-02-19T03:07:45;101959.69;;;16.89;59.03
38616;BME280;24370;51.986;4.666;2023-02-19T03:10:20;101966.34;;;16.04;62.29
38616;BME280;24370;51.986;4.666;2023-02-19T03:12:49;101968.91;;;16.63;59.66
38616;BME280;24370;51.986;4.666;2023-02-19T03:15:43;101973.72;;;15.75;65.83
38616;BME280;24370;51.986;4.666;2023-02-19T03:18:30;101984.91;;;15.23;68.69
38616;BME280;24370;51.986;4.666;2023-02-19T03:21:19;101972.03;;;14.97;72.27
38616;BME280;24370;51.986;4.666;2023-02-19T03:23:45;101975.25;;;15.25;69.20
38616;BME280;24370;51.986;4.666;2023-02-19T03:26:32;101967.06;;;14.69;72.81
38616;BME280;24370;51.986;4.666;2023-02-19T03:28:59;101980.81;;;15.73;69.79
38616;BME280;24370;51.986;4.666;2023-02-19T03:31:44;101987.72;;;15.07;70.57
38616;BME280;24370;51.986;4.666;2023-02-19T03:34:15;101979.84;;;15.07;72.87
38616;BME280;24370;51.986;4.666;2023-02-19T03:36:55;101992.13;;;15.83;67.46
38616;BME280;24370;51.986;4.666;2023-02-19T03:39:23;101989.47;;;15.10;71.30
38616;BME280;24370;51.986;4.666;2023-02-19T03:52:29;102009.03;;;14.83;70.70
38616;BME280;24370;51.986;4.666;2023-02-19T03:55:15;102007.63;;;15.36;70.07
38616;BME280;24370;51.986;4.666;2023-02-19T03:57:52;102010.50;;;15.88;67.56
38616;BME280;24370;51.986;4.666;2023-02-19T04:00:22;102013.31;;;15.72;67.89
38616;BME280;24370;51.986;4.666;2023-02-19T04:02:55;102011.66;;;14.83;70.74
38616;BME280;24370;51.986;4.666;2023-02-19T04:05:28;102007.41;;;14.62;72.26
38616;BME280;24370;51.986;4.666;2023-02-19T04:07:59;102025.56;;;15.00;70.98
38616;BME280;24370;51.986;4.666;2023-02-19T04:10:28;102013.25;;;14.99;68.93
38616;BME280;24370;51.986;4.666;2023-02-19T04:12:59;102019.75;;;15.50;68.13
38616;BME280;24370;51.986;4.666;2023-02-19T04:15:29;102019.81;;;14.46;71.99
38616;BME280;24370;51.986;4.666;2023-02-19T04:17:59;102019.88;;;14.38;71.45
38616;BME280;24370;51.986;4.666;2023-02-19T04:20:28;102023.22;;;14.60;72.31
38616;BME280;24370;51.986;4.666;2023-02-19T04:22:55;102033.00;;;15.43;69.84
38616;BME280;24370;51.986;4.666;2023-02-19T04:25:22;102033.06;;;15.37;68.25
38616;BME280;24370;51.986;4.666;2023-02-19T04:27:48;102045.53;;;15.21;69.84
38616;BME280;24370;51.986;4.666;2023-02-19T04:30:15;102047.00;;;15.49;69.39
38616;BME280;24370;51.986;4.666;2023-02-19T04:32:40;102053.66;;;15.82;70.79
38616;BME280;24370;51.986;4.666;2023-02-19T04:35:06;102051.25;;;14.69;74.92
38616;BME280;24370;51.986;4.666;2023-02-19T04:37:31;102049.56;;;14.55;75.87
38616;BME280;24370;51.986;4.666;2023-02-19T04:39:56;102053.56;;;15.07;75.31
38616;BME280;24370;51.986;4.666;2023-02-19T04:42:22;102069.84;;;14.39;76.47
38616;BME280;24370;51.986;4.666;2023-02-19T04:44:47;102070.88;;;15.30;74.30
38616;BME280;24370;51.986;4.666;2023-02-19T04:47:12;102067.88;;;14.72;77.93
38616;BME280;24370;51.986;4.666;2023-02-19T04:49:42;102082.69;;;14.87;76.16
38616;BME280;24370;51.986;4.666;2023-02-19T04:52:08;102078.22;;;15.00;76.04
38616;BME280;24370;51.986;4.666;2023-02-19T04:54:33;102078.16;;;15.90;67.29
38616;BME280;24370;51.986;4.666;2023-02-19T04:56:59;102090.00;;;15.51;68.01
38616;BME280;24370;51.986;4.666;2023-02-19T04:59:24;102085.34;;;15.76;66.20
38616;BME280;24370;51.986;4.666;2023-02-19T05:01:49;102086.19;;;15.76;66.34
38616;BME280;24370;51.986;4.666;2023-02-19T05:04:15;102091.81;;;15.46;67.02
38616;BME280;24370;51.986;4.666;2023-02-19T05:06:40;102095.50;;;15.26;66.77
38616;BME280;24370;51.986;4.666;2023-02-19T05:09:05;102104.22;;;15.34;68.20
38616;BME280;24370;51.986;4.666;2023-02-19T05:11:30;102108.03;;;15.01;69.50
38616;BME280;24370;51.986;4.666;2023-02-19T05:13:56;102114.75;;;15.34;67.54
38616;BME280;24370;51.986;4.666;2023-02-19T05:16:22;102113.09;;;15.24;68.53
38616;BME280;24370;51.986;4.666;2023-02-19T05:18:47;102115.41;;;15.56;67.10
38616;BME280;24370;51.986;4.666;2023-02-19T05:21:13;102125.94;;;14.45;69.34
38616;BME280;24370;51.986;4.666;2023-02-19T05:23:39;102129.97;;;15.00;69.45
38616;BME280;24370;51.986;4.666;2023-02-19T05:26:07;102133.47;;;14.99;67.51
38616;BME280;24370;51.986;4.666;2023-02-19T05:28:33;102125.59;;;14.97;68.89
38616;BME280;24370;51.986;4.666;2023-02-19T05:31:03;102134.38;;;14.99;68.73
38616;BME280;24370;51.986;4.666;2023-02-19T05:33:29;102144.50;;;14.09;72.26
38616;BME280;24370;51.986;4.666;2023-02-19T05:35:54;102141.91;;;14.01;74.45
38616;BME280;24370;51.986;4.666;2023-02-19T05:38:20;102139.84;;;14.71;73.82
38616;BME280;24370;51.986;4.666;2023-02-19T05:40:46;102128.72;;;15.42;68.37
38616;BME280;24370;51.986;4.666;2023-02-19T05:43:12;102120.31;;;15.03;70.46
38616;BME280;24370;51.986;4.666;2023-02-19T05:45:38;102134.41;;;14.96;70.42
38616;BME280;24370;51.986;4.666;2023-02-19T05:48:04;102122.91;;;15.06;69.80
38616;BME280;24370;51.986;4.666;2023-02-19T05:50:32;102136.13;;;14.97;69.06
38616;BME280;24370;51.986;4.666;2023-02-19T05:52:59;102132.00;;;14.54;73.33
38616;BME280;24370;51.986;4.666;2023-02-19T05:55:25;102136.22;;;14.88;68.95
38616;BME280;24370;51.986;4.666;2023-02-19T05:57:51;102135.81;;;15.34;68.46
38616;BME280;24370;51.986;4.666;2023-02-19T06:00:18;102132.41;;;15.23;67.05
38616;BME280;24370;51.986;4.666;2023-02-19T06:02:45;102137.97;;;15.87;65.71
38616;BME280;24370;51.986;4.666;2023-02-19T06:05:11;102147.75;;;14.57;71.53
38616;BME280;24370;51.986;4.666;2023-02-19T06:07:37;102144.63;;;15.30;67.56
38616;BME280;24370;51.986;4.666;2023-02-19T06:10:06;102155.63;;;14.71;74.33
38616;BME280;24370;51.986;4.666;2023-02-19T06:12:31;102158.00;;;15.07;71.65
38616;BME280;24370;51.986;4.666;2023-02-19T06:14:57;102166.41;;;14.13;72.35
38616;BME280;24370;51.986;4.666;2023-02-19T06:17:22;102166.88;;;14.93;71.61
38616;BME280;24370;51.986;4.666;2023-02-19T06:19:48;102173.34;;;14.24;75.56
38616;BME280;24370;51.986;4.666;2023-02-19T06:22:14;102173.59;;;15.32;71.23
38616;BME280;24370;51.986;4.666;2023-02-19T06:24:40;102175.72;;;14.88;73.47
38616;BME280;24370;51.986;4.666;2023-02-19T06:27:07;102181.78;;;14.99;71.14
38616;BME280;24370;51.986;4.666;2023-02-19T06:29:32;102189.63;;;15.04;70.01
38616;BME280;24370;51.986;4.666;2023-02-19T06:31:58;102189.78;;;14.78;73.49
38616;BME280;24370;51.986;4.666;2023-02-19T06:34:24;102188.88;;;14.85;74.58
38616;BME280;24370;51.986;4.666;2023-02-19T06:36:49;102188.94;;;14.75;72.86
38616;BME280;24370;51.986;4.666;2023-02-19T06:39:15;102193.56;;;14.18;75.26
38616;BME280;24370;51.986;4.666;2023-02-19T06:41:40;102197.50;;;16.08;68.01
38616;BME280;24370;51.986;4.666;2023-02-19T06:44:05;102199.31;;;15.02;69.03
38616;BME280;24370;51.986;4.666;2023-02-19T06:46:31;102197.25;;;15.39;69.86
38616;BME280;24370;51.986;4.666;2023-02-19T06:48:56;102200.13;;;15.12;69.90
38616;BME280;24370;51.986;4.666;2023-02-19T06:51:21;102206.78;;;13.85;76.68
38616;BME280;24370;51.986;4.666;2023-02-19T06:53:48;102207.53;;;14.31;71.49
38616;BME280;24370;51.986;4.666;2023-02-19T06:56:34;102213.50;;;14.70;71.31
38616;BME280;24370;51.986;4.666;2023-02-19T06:59:06;102210.81;;;14.82;72.25
38616;BME280;24370;51.986;4.666;2023-02-19T07:01:33;102209.72;;;15.19;68.37
38616;BME280;24370;51.986;4.666;2023-02-19T07:03:59;102218.50;;;15.15;67.72
38616;BME280;24370;51.986;4.666;2023-02-19T07:06:26;102218.94;;;14.19;79.63
38616;BME280;24370;51.986;4.666;2023-02-19T07:08:53;102229.25;;;14.82;72.48
38616;BME280;24370;51.986;4.666;2023-02-19T07:11:19;102232.38;;;15.38;69.79
38616;BME280;24370;51.986;4.666;2023-02-19T07:13:45;102230.53;;;15.51;66.14
38616;BME280;24370;51.986;4.666;2023-02-19T07:16:11;102237.06;;;14.98;68.62
38616;BME280;24370;51.986;4.666;2023-02-19T07:18:38;102255.59;;;14.78;71.51
38616;BME280;24370;51.986;4.666;2023-02-19T07:21:09;102253.06;;;14.48;74.97
38616;BME280;24370;51.986;4.666;2023-02-19T07:23:35;102255.47;;;15.02;70.56
38616;BME280;24370;51.986;4.666;2023-02-19T07:26:01;102260.06;;;14.51;73.45
38616;BME280;24370;51.986;4.666;2023-02-19T07:28:27;102271.44;;;14.61;73.07
38616;BME280;24370;51.986;4.666;2023-02-19T07:30:52;102281.19;;;14.20;75.75
38616;BME280;24370;51.986;4.666;2023-02-19T07:33:18;102281.69;;;15.18;70.49
38616;BME280;24370;51.986;4.666;2023-02-19T07:35:45;102288.97;;;14.60;75.91
38616;BME280;24370;51.986;4.666;2023-02-19T07:38:10;102292.28;;;15.12;70.16
38616;BME280;24370;51.986;4.666;2023-02-19T07:40:36;102302.19;;;14.51;73.11
38616;BME280;24370;51.986;4.666;2023-02-19T07:43:02;102304.88;;;14.14;77.96
38616;BME280;24370;51.986;4.666;2023-02-19T07:45:27;102299.34;;;15.03;73.80
38616;BME280;24370;51.986;4.666;2023-02-19T07:47:52;102306.22;;;15.26;73.47
38616;BME280;24370;51.986;4.666;2023-02-19T07:50:18;102314.19;;;16.30;67.75
38616;BME280;24370;51.986;4.666;2023-02-19T07:52:43;102316.97;;;14.86;73.56
38616;BME280;24370;51.986;4.666;2023-02-19T07:55:08;102320.59;;;14.51;76.41
38616;BME280;24370;51.986;4.666;2023-02-19T07:57:34;102330.22;;;14.41;78.75
38616;BME280;24370;51.986;4.666;2023-02-19T07:59:59;102327.47;;;14.89;75.29
38616;BME280;24370;51.986;4.666;2023-02-19T08:02:24;102328.38;;;14.86;74.91
38616;BME280;24370;51.986;4.666;2023-02-19T08:05:08;102335.44;;;14.81;73.50
38616;BME280;24370;51.986;4.666;2023-02-19T08:07:35;102325.56;;;15.25;72.45
38616;BME280;24370;51.986;4.666;2023-02-19T08:10:02;102346.88;;;14.69;73.91
38616;BME280;24370;51.986;4.666;2023-02-19T08:12:57;102345.22;;;14.10;81.38
38616;BME280;24370;51.986;4.666;2023-02-19T08:15:42;102353.88;;;14.73;78.60
38616;BME280;24370;51.986;4.666;2023-02-19T08:18:08;102356.34;;;15.18;76.53
38616;BME280;24370;51.986;4.666;2023-02-19T08:20:34;102355.44;;;15.18;73.69
38616;BME280;24370;51.986;4.666;2023-02-19T08:23:00;102350.03;;;15.44;73.61
38616;BME280;24370;51.986;4.666;2023-02-19T08:25:26;102353.41;;;15.63;70.56
38616;BME280;24370;51.986;4.666;2023-02-19T08:27:51;102358.00;;;15.32;70.59
38616;BME280;24370;51.986;4.666;2023-02-19T08:30:16;102359.94;;;14.96;72.50
38616;BME280;24370;51.986;4.666;2023-02-19T08:32:42;102363.59;;;14.28;77.78
38616;BME280;24370;51.986;4.666;2023-02-19T08:35:07;102377.59;;;13.71;84.43
38616;BME280;24370;51.986;4.666;2023-02-19T08:37:32;102370.44;;;14.97;74.37
38616;BME280;24370;51.986;4.666;2023-02-19T08:39:58;102380.19;;;14.52;75.31
38616;BME280;24370;51.986;4.666;2023-02-19T08:42:23;102374.06;;;14.76;75.98
38616;BME280;24370;51.986;4.666;2023-02-19T08:44:49;102376.47;;;15.29;71.62
38616;BME280;24370;51.986;4.666;2023-02-19T08:47:14;102375.59;;;15.23;71.63
38616;BME280;24370;51.986;4.666;2023-02-19T08:49:39;102371.03;;;15.55;68.96
38616;BME280;24370;51.986;4.666;2023-02-19T08:52:05;102373.97;;;14.95;70.20
38616;BME280;24370;51.986;4.666;2023-02-19T08:54:30;102370.16;;;15.54;68.45
38616;BME280;24370;51.986;4.666;2023-02-19T08:56:55;102372.34;;;14.36;75.51
38616;BME280;24370;51.986;4.666;2023-02-19T08:59:21;102374.94;;;14.61;74.34
38616;BME280;24370;51.986;4.666;2023-02-19T09:01:46;102365.31;;;14.46;73.70
38616;BME280;24370;51.986;4.666;2023-02-19T09:04:11;102365.84;;;15.46;71.82
38616;BME280;24370;51.986;4.666;2023-02-19T09:06:37;102372.31;;;14.49;72.35
38616;BME280;24370;51.986;4.666;2023-02-19T09:09:03;102363.16;;;15.53;67.20
38616;BME280;24370;51.986;4.666;2023-02-19T09:11:28;102374.72;;;15.26;66.42
38616;BME280;24370;51.986;4.666;2023-02-19T09:13:55;102380.94;;;15.14;68.36
38616;BME280;24370;51.986;4.666;2023-02-19T09:16:20;102387.44;;;16.02;64.42
38616;BME280;24370;51.986;4.666;2023-02-19T09:18:46;102395.25;;;16.16;62.98
38616;BME280;24370;51.986;4.666;2023-02-19T09:21:11;102403.63;;;15.37;65.04
38616;BME280;24370;51.986;4.666;2023-02-19T09:23:36;102404.78;;;14.32;70.73
38616;BME280;24370;51.986;4.666;2023-02-19T09:26:03;102396.59;;;15.36;66.83
38616;BME280;24370;51.986;4.666;2023-02-19T09:28:32;102407.72;;;15.92;61.76
38616;BME280;24370;51.986;4.666;2023-02-19T09:31:03;102418.75;;;14.96;67.97
38616;BME280;24370;51.986;4.666;2023-02-19T09:33:29;102423.91;;;15.18;68.85
38616;BME280;24370;51.986;4.666;2023-02-19T09:35:57;102430.78;;;15.56;65.72
38616;BME280;24370;51.986;4.666;2023-02-19T09:38:23;102425.34;;;15.85;62.63
38616;BME280;24370;51.986;4.666;2023-02-19T09:40:48;102440.13;;;17.04;58.28
38616;BME280;24370;51.986;4.666;2023-02-19T09:43:18;102446.81;;;16.51;59.66
38616;BME280;24370;51.986;4.666;2023-02-19T09:45:45;102439.09;;;17.81;55.66
38616;BME280;24370;51.986;4.666;2023-02-19T09:48:11;102448.03;;;17.74;54.50
38616;BME280;24370;51.986;4.666;2023-02-19T09:50:41;102450.19;;;17.44;54.67
38616;BME280;24370;51.986;4.666;2023-02-19T09:53:17;102457.53;;;16.34;56.26
38616;BME280;24370;51.986;4.666;2023-02-19T09:55:45;102455.38;;;17.54;53.57
38616;BME280;24370;51.986;4.666;2023-02-19T10:00:50;102467.22;;;17.23;54.93
38616;BME280;24370;51.986;4.666;2023-02-19T10:03:24;102482.81;;;14.38;60.28
38616;BME280;24370;51.986;4.666;2023-02-19T10:05:56;102483.38;;;15.77;56.64
38616;BME280;24370;51.986;4.666;2023-02-19T10:08:21;102483.63;;;15.20;59.22
38616;BME280;24370;51.986;4.666;2023-02-19T10:10:47;102489.78;;;15.07;60.92
38616;BME280;24370;51.986;4.666;2023-02-19T10:13:23;102492.41;;;15.21;58.86
38616;BME280;24370;51.986;4.666;2023-02-19T10:15:55;102491.34;;;15.67;57.80
38616;BME280;24370;51.986;4.666;2023-02-19T10:18:24;102502.13;;;14.43;61.24
38616;BME280;24370;51.986;4.666;2023-02-19T10:20:52;102504.75;;;14.38;61.81
38616;BME280;24370;51.986;4.666;2023-02-19T10:23:18;102503.00;;;14.59;60.15
38616;BME280;24370;51.986;4.666;2023-02-19T10:25:51;102510.84;;;14.17;61.69
38616;BME280;24370;51.986;4.666;2023-02-19T10:28:19;102521.34;;;15.29;58.74
38616;BME280;24370;51.986;4.666;2023-02-19T10:30:55;102530.19;;;14.42;61.71
38616;BME280;24370;51.986;4.666;2023-02-19T10:33:21;102528.44;;;14.83;59.46
38616;BME280;24370;51.986;4.666;2023-02-19T10:38:16;102529.28;;;15.05;58.01
38616;BME280;24370;51.986;4.666;2023-02-19T10:40:45;102535.44;;;14.59;61.05
38616;BME280;24370;51.986;4.666;2023-02-19T10:43:30;102539.88;;;14.65;61.69
38616;BME280;24370;51.986;4.666;2023-02-19T10:46:03;102529.00;;;15.97;57.01
38616;BME280;24370;51.986;4.666;2023-02-19T10:48:35;102536.06;;;15.90;56.04
38616;BME280;24370;51.986;4.666;2023-02-19T10:51:05;102548.66;;;14.83;59.18
38616;BME280;24370;51.986;4.666;2023-02-19T10:53:41;102550.34;;;14.51;60.94
38616;BME280;24370;51.986;4.666;2023-02-19T10:56:09;102547.75;;;14.93;60.26
38616;BME280;24370;51.986;4.666;2023-02-19T10:58:34;102547.69;;;14.28;61.94
38616;BME280;24370;51.986;4.666;2023-02-19T11:01:23;102548.59;;;15.03;59.51
38616;BME280;24370;51.986;4.666;2023-02-19T11:03:52;102541.59;;;15.08;59.62
38616;BME280;24370;51.986;4.666;2023-02-19T11:06:37;102534.41;;;15.64;56.86
38616;BME280;24370;51.986;4.666;2023-02-19T11:09:03;102527.50;;;15.15;58.14
38616;BME280;24370;51.986;4.666;2023-02-19T11:11:36;102534.56;;;14.40;61.37
38616;BME280;24370;51.986;4.666;2023-02-19T11:14:13;102532.75;;;14.08;62.94
38616;BME280;24370;51.986;4.666;2023-02-19T11:16:50;102526.72;;;14.84;61.66
38616;BME280;24370;51.986;4.666;2023-02-19T11:19:36;102522.06;;;15.78;56.38
38616;BME280;24370;51.986;4.666;2023-02-19T11:25:27;102531.50;;;16.23;55.61
38616;BME280;24370;51.986;4.666;2023-02-19T11:30:35;102516.53;;;16.22;54.70
38616;BME280;24370;51.986;4.666;2023-02-19T11:35:42;102518.16;;;16.44;54.65
38616;BME280;24370;51.986;4.666;2023-02-19T11:38:10;102530.75;;;15.96;54.00
38616;BME280;24370;51.986;4.666;2023-02-19T11:49:06;102534.56;;;14.93;59.60
38616;BME280;24370;51.986;4.666;2023-02-19T11:51:50;102523.13;;;16.78;53.85
38616;BME280;24370;51.986;4.666;2023-02-19T11:54:43;102504.09;;;17.34;52.72
38616;BME280;24370;51.986;4.666;2023-02-19T11:57:42;102514.25;;;15.48;56.54
38616;BME280;24370;51.986;4.666;2023-02-19T12:08:40;102528.66;;;16.48;54.83
38616;BME280;24370;51.986;4.666;2023-02-19T12:22:26;102535.81;;;16.36;57.18
38616;BME280;24370;51.986;4.666;2023-02-19T12:30:30;102541.78;;;16.55;56.90
38616;BME280;24370;51.986;4.666;2023-02-19T12:38:31;102550.09;;;16.00;59.53
38616;BME280;24370;51.986;4.666;2023-02-19T12:43:36;102549.06;;;17.31;54.80
38616;BME280;24370;51.986;4.666;2023-02-19T12:46:16;102550.06;;;17.91;51.54
38616;BME280;24370;51.986;4.666;2023-02-19T12:48:53;102562.81;;;16.66;54.85
38616;BME280;24370;51.986;4.666;2023-02-19T12:51:28;102558.25;;;16.93;54.11
38616;BME280;24370;51.986;4.666;2023-02-19T12:54:16;102565.28;;;16.91;53.70
38616;BME280;24370;51.986;4.666;2023-02-19T12:56:54;102578.34;;;15.59;57.18
38616;BME280;24370;51.986;4.666;2023-02-19T12:59:28;102576.59;;;15.61;56.32
38616;BME280;24370;51.986;4.666;2023-02-19T13:04:46;102608.28;;;14.59;57.08
38616;BME280;24370;51.986;4.666;2023-02-19T13:07:27;102608.25;;;15.46;54.74
38616;BME280;24370;51.986;4.666;2023-02-19T13:10:11;102617.03;;;15.57;52.86
38616;BME280;24370;51.986;4.666;2023-02-19T13:12:41;102611.81;;;15.07;55.31
38616;BME280;24370;51.986;4.666;2023-02-19T13:15:29;102607.72;;;16.63;52.06
38616;BME280;24370;51.986;4.666;2023-02-19T13:17:56;102624.97;;;15.26;55.40
38616;BME280;24370;51.986;4.666;2023-02-19T13:20:31;102624.94;;;15.54;54.31
38616;BME280;24370;51.986;4.666;2023-02-19T13:36:40;102642.44;;;14.56;56.50
38616;BME280;24370;51.986;4.666;2023-02-19T13:39:06;102654.81;;;15.40;55.21
38616;BME280;24370;51.986;4.666;2023-02-19T13:41:40;102655.56;;;16.04;53.30
38616;BME280;24370;51.986;4.666;2023-02-19T13:44:15;102658.34;;;14.88;53.44
38616;BME280;24370;51.986;4.666;2023-02-19T13:46:44;102641.50;;;15.96;51.15
38616;BME280;24370;51.986;4.666;2023-02-19T13:51:49;102644.56;;;16.78;48.47
38616;BME280;24370;51.986;4.666;2023-02-19T13:54:29;102652.75;;;16.38;50.08
38616;BME280;24370;51.986;4.666;2023-02-19T13:59:43;102660.72;;;16.32;49.49
38616;BME280;24370;51.986;4.666;2023-02-19T14:05:10;102659.16;;;15.72;50.28
38616;BME280;24370;51.986;4.666;2023-02-19T14:07:47;102678.50;;;15.81;50.65
38616;BME280;24370;51.986;4.666;2023-02-19T14:11:06;102676.72;;;15.67;50.16
38616;BME280;24370;51.986;4.666;2023-02-19T14:16:31;102680.28;;;14.98;53.80
38616;BME280;24370;51.986;4.666;2023-02-19T14:18:57;102686.41;;;15.65;51.56
38616;BME280;24370;51.986;4.666;2023-02-19T14:21:35;102680.16;;;16.08;49.49
38616;BME280;24370;51.986;4.666;2023-02-19T14:24:01;102674.09;;;15.73;50.93
38616;BME280;24370;51.986;4.666;2023-02-19T14:26:30;102659.06;;;16.08;50.82
38616;BME280;24370;51.986;4.666;2023-02-19T14:28:56;102659.00;;;16.22;49.17
38616;BME280;24370;51.986;4.666;2023-02-19T14:31:35;102659.22;;;15.20;53.32
38616;BME280;24370;51.986;4.666;2023-02-19T14:34:04;102671.53;;;15.12;53.36
38616;BME280;24370;51.986;4.666;2023-02-19T14:36:42;102671.50;;;14.99;53.12
38616;BME280;24370;51.986;4.666;2023-02-19T14:42:01;102660.88;;;15.92;52.05
38616;BME280;24370;51.986;4.666;2023-02-19T14:44:32;102666.25;;;15.35;52.02
38616;BME280;24370;51.986;4.666;2023-02-19T14:47:02;102664.50;;;15.20;52.88
38616;BME280;24370;51.986;4.666;2023-02-19T14:49:29;102669.72;;;15.55;51.54
38616;BME280;24370;51.986;4.666;2023-02-19T14:52:02;102674.16;;;15.25;51.62
38616;BME280;24370;51.986;4.666;2023-02-19T14:54:40;102671.53;;;15.21;51.07
38616;BME280;24370;51.986;4.666;2023-02-19T14:57:12;102659.22;;;14.80;51.73
38616;BME280;24370;51.986;4.666;2023-02-19T14:59:39;102646.84;;;15.87;49.91